Accueil
METAR-TAF:

METAR-TAF

Aéroports :

Harare, Zimbabwe

Aéroport international d'Harare

latitude: 17-55S, longitude: 031-08E, altitude: 1479 m

Observation

Le bulletin a été fait il y a 2 heures et 20 minutes, à 17:00 UTC
Vent 5 kt de nord/nord-est
Température 17°C
Humidité 55%
Pression 1023 hPa
Visibilité 10 km ou plus
pas de nuages en-dessous de 1500 mètres et pas de cumulonimbus.

METAR: FVHA 261700Z 03005KT CAVOK 17/08 Q1023 NOSIG

Heure: 21:20 (19:20 UTC)

Prévision

Le bulletin a été fait il y a 9 heures et 20 minutes, à 10:00 UTC
Prévision valable du 26 à 12 UTC au 27 à 18 UTC
Vent 8 kt de est/nord-est
Visibilité 10 km ou plus
pas de nuages en-dessous de 1500 mètres et pas de cumulonimbus.

TAF: FVHA 261000Z 2612/2718 06008KT CAVOK

Observations et prévisions météorologiques de plus de 4000 aéroports (messages METAR et TAF).

Les stations disponibles sont représentées par des disques jaunes et rouges sur la carte.

Passer la souris dessus pour voir le nom de la station.

Cliquer dessus pour voir les observations et prévisions météorologiques.

Pour changer de carte: cliquez sur les boutons verts avec une croix noire pour zoomer, sur le bouton vert avec un tiret pour effectuer un zoom arrière, ou sur les flèches vertes pour les cartes adjacentes.


METAR-TAF: